createdAt,value
2023-04-23T10:22:18.401Z,17.60
2023-04-23T10:24:56.028Z,17.65
2023-04-23T10:27:36.643Z,17.62
2023-04-23T10:30:08.807Z,17.53
2023-04-23T10:34:15.787Z,17.71
2023-04-23T10:36:42.291Z,17.80
2023-04-23T10:39:10.497Z,17.90
2023-04-23T10:41:39.403Z,17.90
2023-04-23T10:44:07.385Z,17.80
2023-04-23T10:46:37.788Z,17.74
2023-04-23T10:49:16.670Z,18.01
2023-04-23T10:52:17.711Z,18.14
2023-04-23T10:54:36.246Z,18.41
2023-04-23T10:57:04.992Z,18.55
2023-04-23T10:59:32.142Z,18.90
2023-04-23T11:02:19.944Z,19.05
2023-04-23T11:04:58.342Z,19.21
2023-04-23T11:07:32.950Z,18.89
2023-04-23T11:10:01.191Z,18.57
2023-04-23T11:12:27.612Z,18.73
2023-04-23T11:14:55.430Z,18.88
2023-04-23T11:17:23.806Z,18.86
2023-04-23T11:20:13.483Z,18.87
2023-04-23T11:22:44.850Z,18.68
2023-04-23T11:25:19.155Z,18.57
2023-04-23T11:27:48.217Z,18.76
2023-04-23T11:30:19.804Z,18.75
2023-04-23T11:32:49.751Z,18.72
2023-04-23T11:35:18.106Z,18.71
2023-04-23T11:37:45.753Z,18.76
2023-04-23T11:40:19.425Z,18.79
2023-04-23T11:42:47.391Z,18.81
2023-04-23T11:45:24.933Z,19.05
2023-04-23T11:47:57.206Z,19.21
2023-04-23T11:50:33.376Z,19.05
2023-04-23T11:53:08.998Z,18.91
2023-04-23T11:55:35.800Z,18.73
2023-04-23T11:58:03.412Z,18.62
2023-04-23T12:00:30.084Z,18.57
2023-04-23T12:02:58.752Z,18.58
2023-04-23T12:05:28.398Z,18.67
2023-04-23T12:07:55.398Z,18.80
2023-04-23T12:10:22.864Z,18.77
2023-04-23T12:12:53.132Z,18.68
2023-04-23T12:15:20.805Z,18.68
2023-04-23T12:17:51.548Z,18.69
2023-04-23T12:20:22.475Z,18.81
2023-04-23T12:22:49.072Z,18.97
2023-04-23T12:25:16.010Z,19.14
2023-04-23T12:27:44.811Z,19.29
2023-04-23T12:30:12.098Z,19.54
2023-04-23T12:32:38.823Z,19.39
2023-04-23T12:35:06.391Z,19.29
2023-04-23T12:37:37.516Z,19.57
2023-04-23T12:40:07.428Z,19.48
2023-04-23T12:42:35.105Z,19.50
2023-04-23T12:45:09.993Z,19.21
2023-04-23T12:47:36.656Z,19.25
2023-04-23T12:50:05.652Z,19.52
2023-04-23T12:52:32.223Z,19.42
2023-04-23T12:55:00.502Z,19.39
2023-04-23T12:57:27.773Z,19.84
2023-04-23T12:59:55.228Z,20.07
2023-04-23T13:02:22.318Z,19.59
2023-04-23T13:04:48.855Z,19.11
2023-04-23T13:07:15.557Z,18.94
2023-04-23T13:09:42.342Z,18.77
2023-04-23T13:12:09.295Z,18.57
2023-04-23T13:14:36.158Z,18.71
2023-04-23T13:17:02.722Z,18.80
2023-04-23T13:19:29.412Z,18.88
2023-04-23T13:21:55.928Z,18.84
2023-04-23T13:24:22.515Z,18.86
2023-04-23T13:26:49.132Z,18.78
2023-04-23T13:29:16.032Z,18.88
2023-04-23T13:31:42.533Z,18.83
2023-04-23T13:34:09.011Z,18.56
2023-04-23T13:36:35.547Z,18.63
2023-04-23T13:39:02.060Z,18.60
2023-04-23T13:41:29.027Z,18.57
2023-04-23T13:43:55.461Z,18.73
2023-04-23T13:46:22.107Z,18.66
2023-04-23T13:48:48.609Z,18.58
2023-04-23T13:51:33.258Z,18.64
2023-04-23T13:54:01.766Z,18.71
2023-04-23T13:56:30.175Z,18.75
2023-04-23T13:59:17.450Z,18.70
2023-04-23T14:01:47.358Z,18.69
2023-04-23T14:04:14.009Z,18.38
2023-04-23T14:06:40.634Z,18.19
2023-04-23T14:09:16.380Z,18.54
2023-04-23T14:11:42.944Z,18.80
2023-04-23T14:14:09.638Z,19.73
2023-04-23T14:16:36.592Z,19.82
2023-04-23T14:19:03.522Z,20.04
2023-04-23T14:21:30.102Z,19.90
2023-04-23T14:24:02.797Z,19.80
2023-04-23T14:29:30.627Z,18.91
2023-04-23T14:31:57.157Z,18.94
2023-04-23T14:34:23.742Z,18.40
2023-04-23T14:36:52.927Z,18.14
2023-04-23T14:39:20.069Z,18.07
2023-04-23T14:41:46.647Z,18.01
2023-04-23T14:44:13.181Z,17.88
2023-04-23T14:46:39.863Z,17.87
2023-04-23T14:49:06.601Z,17.72
2023-04-23T14:51:33.328Z,17.60
2023-04-23T14:53:59.852Z,17.35
2023-04-23T14:56:27.478Z,17.06
2023-04-23T14:58:54.079Z,16.75
2023-04-23T15:01:20.737Z,16.35
2023-04-23T15:03:47.775Z,15.93
2023-04-23T15:06:14.912Z,15.59
2023-04-23T15:08:41.414Z,15.25
2023-04-23T15:11:13.452Z,14.85
2023-04-23T15:14:06.539Z,14.57
2023-04-23T15:16:48.118Z,14.25
2023-04-23T15:19:18.027Z,14.09
2023-04-23T15:21:45.277Z,13.81
2023-04-23T15:24:12.456Z,13.70
2023-04-23T15:26:39.457Z,13.60
2023-04-23T15:29:09.169Z,13.36
2023-04-23T15:31:36.885Z,13.06
2023-04-23T15:34:06.273Z,12.96
2023-04-23T15:36:33.401Z,12.89
2023-04-23T15:38:59.884Z,12.93
2023-04-23T15:41:27.089Z,12.99
2023-04-23T15:43:55.013Z,12.82
2023-04-23T15:46:21.624Z,12.88
2023-04-23T15:48:48.202Z,12.90
2023-04-23T15:51:14.692Z,12.87
2023-04-23T15:53:41.161Z,12.87
2023-04-23T15:56:07.614Z,12.88
2023-04-23T15:58:34.143Z,12.79
2023-04-23T16:01:01.922Z,12.74
2023-04-23T16:03:28.690Z,12.60
2023-04-23T16:05:55.822Z,12.59
2023-04-23T16:08:22.323Z,12.56
2023-04-23T16:10:48.802Z,12.57
2023-04-23T16:13:15.306Z,12.58
2023-04-23T16:15:41.843Z,12.51
2023-04-23T16:18:08.431Z,12.51
2023-04-23T16:20:36.109Z,12.52
2023-04-23T16:23:02.658Z,12.49
2023-04-23T16:25:29.185Z,12.45
2023-04-23T16:27:56.133Z,12.48
2023-04-23T16:30:23.428Z,12.46
2023-04-23T16:32:50.162Z,12.43
2023-04-23T16:35:16.885Z,12.37
2023-04-23T16:37:43.536Z,12.35
2023-04-23T16:40:10.502Z,12.39
2023-04-23T16:42:37.136Z,12.41
2023-04-23T16:45:04.867Z,12.47
2023-04-23T16:47:31.358Z,12.46
2023-04-23T16:49:58.065Z,12.40
2023-04-23T16:52:25.000Z,12.41
2023-04-23T16:54:51.583Z,12.39
2023-04-23T16:57:18.518Z,12.40
2023-04-23T16:59:45.098Z,12.34
2023-04-23T17:02:11.919Z,12.32
2023-04-23T17:04:38.918Z,12.23
2023-04-23T17:07:05.656Z,12.22
2023-04-23T17:09:32.472Z,12.16
2023-04-23T17:11:59.488Z,12.16
2023-04-23T17:14:26.665Z,12.10
2023-04-23T17:16:53.421Z,12.02
2023-04-23T17:19:19.991Z,11.97
2023-04-23T17:21:46.559Z,11.95
2023-04-23T17:24:13.165Z,11.96
2023-04-23T17:26:39.845Z,11.94
2023-04-23T17:29:06.775Z,11.91
2023-04-23T17:31:34.832Z,11.91
2023-04-23T17:34:02.723Z,11.87
2023-04-23T17:36:29.383Z,11.88
2023-04-23T17:38:55.970Z,11.82
2023-04-23T17:41:22.885Z,11.79
2023-04-23T17:43:49.945Z,11.76
2023-04-23T17:46:16.905Z,11.76
2023-04-23T17:48:43.935Z,11.69
2023-04-23T17:51:10.631Z,11.69
2023-04-23T17:53:37.184Z,11.66
2023-04-23T17:56:03.853Z,11.57
2023-04-23T17:58:30.949Z,11.54
2023-04-23T18:00:57.545Z,11.50
2023-04-23T18:03:24.788Z,11.49
2023-04-23T18:05:51.618Z,11.48
2023-04-23T18:08:19.643Z,11.46
2023-04-23T18:10:46.322Z,11.43
2023-04-23T18:13:13.729Z,11.41
2023-04-23T18:15:42.120Z,11.41
2023-04-23T18:18:09.405Z,11.38
2023-04-23T18:20:38.498Z,11.36
2023-04-23T18:23:06.732Z,11.36
2023-04-23T18:25:33.628Z,11.32
2023-04-23T18:28:00.156Z,11.33
2023-04-23T18:30:26.838Z,11.25
2023-04-23T18:33:33.265Z,11.27
2023-04-23T18:36:20.434Z,11.23
2023-04-23T18:38:46.935Z,11.22
2023-04-23T18:41:13.498Z,11.27
2023-04-23T18:43:40.315Z,11.23
2023-04-23T18:46:06.938Z,11.21
2023-04-23T18:48:39.052Z,11.20
2023-04-23T18:51:14.528Z,11.17
2023-04-23T18:53:41.144Z,11.15
2023-04-23T18:56:07.923Z,11.12
2023-04-23T18:58:34.560Z,11.12
2023-04-23T19:01:01.253Z,11.05
2023-04-23T19:03:29.322Z,11.10
2023-04-23T19:05:56.064Z,11.08
2023-04-23T19:08:28.474Z,11.05
2023-04-23T19:10:55.952Z,11.03
2023-04-23T19:13:22.927Z,11.02
2023-04-23T19:15:52.790Z,11.00
2023-04-23T19:18:20.072Z,11.00
2023-04-23T19:20:46.610Z,10.96
2023-04-23T19:23:13.353Z,10.97
2023-04-23T19:25:39.905Z,10.94
2023-04-23T19:28:06.550Z,10.93
2023-04-23T19:30:33.238Z,10.92
2023-04-23T19:33:00.275Z,10.97
2023-04-23T19:35:26.998Z,10.89
2023-04-23T19:37:53.751Z,10.89
2023-04-23T19:40:20.300Z,10.94
2023-04-23T19:42:46.848Z,10.93
2023-04-23T19:45:15.462Z,10.88
2023-04-23T19:47:42.346Z,10.88
2023-04-23T19:50:09.827Z,10.86
2023-04-23T19:52:36.834Z,10.86
2023-04-23T19:55:03.542Z,10.86
2023-04-23T19:57:30.101Z,10.86
2023-04-23T19:59:56.601Z,10.84
2023-04-23T20:02:23.931Z,10.85
2023-04-23T20:04:50.440Z,10.84
2023-04-23T20:07:17.484Z,10.85
2023-04-23T20:09:44.431Z,10.84
2023-04-23T20:12:11.385Z,10.85
2023-04-23T20:14:37.940Z,10.84
2023-04-23T20:17:04.724Z,10.85
2023-04-23T20:19:31.341Z,10.86
2023-04-23T20:21:57.995Z,10.80
2023-04-23T20:24:24.588Z,10.79
2023-04-23T20:26:51.802Z,10.80
2023-04-23T20:29:18.330Z,10.74
2023-04-23T20:31:49.202Z,10.71
2023-04-23T20:34:16.949Z,10.70
2023-04-23T20:36:46.786Z,10.67
2023-04-23T20:39:13.374Z,10.64
2023-04-23T20:41:40.100Z,10.62
2023-04-23T20:44:06.619Z,10.59
2023-04-23T20:46:33.125Z,10.56
2023-04-23T20:49:03.574Z,10.59
2023-04-23T20:51:34.068Z,10.55
2023-04-23T20:54:01.500Z,10.49
2023-04-23T20:56:29.224Z,10.46
2023-04-23T20:58:57.493Z,10.39
2023-04-23T21:01:25.604Z,10.29
2023-04-23T21:03:54.006Z,10.23
2023-04-23T21:06:21.594Z,10.19
2023-04-23T21:08:48.958Z,10.19
2023-04-23T21:11:17.847Z,10.18
2023-04-23T21:13:45.145Z,10.12
2023-04-23T21:16:11.871Z,10.09
2023-04-23T21:18:40.668Z,10.05
2023-04-23T21:21:07.962Z,10.01
2023-04-23T21:23:34.848Z,9.99
2023-04-23T21:26:01.702Z,9.98
2023-04-23T21:28:28.188Z,9.91
2023-04-23T21:30:56.237Z,9.90
2023-04-23T21:33:24.841Z,9.80
2023-04-23T21:35:53.510Z,9.74
2023-04-23T21:38:21.515Z,9.68
2023-04-23T21:40:48.541Z,9.61
2023-04-23T21:43:15.249Z,9.55
2023-04-23T21:45:41.940Z,9.48
2023-04-23T21:48:08.672Z,9.50
2023-04-23T21:50:36.040Z,9.44
2023-04-23T21:53:04.054Z,9.48
2023-04-23T21:55:31.731Z,9.48
2023-04-23T21:58:09.831Z,9.47
2023-04-23T22:00:44.730Z,9.48
2023-04-23T22:03:11.999Z,9.45
2023-04-23T22:05:39.966Z,9.53
2023-04-23T22:08:09.773Z,9.51
2023-04-23T22:10:42.784Z,9.56
2023-04-23T22:13:10.027Z,9.53
2023-04-23T22:15:36.866Z,9.55
2023-04-23T22:18:03.598Z,9.53
2023-04-23T22:20:30.652Z,9.57
2023-04-23T22:22:57.296Z,9.58
2023-04-23T22:25:24.577Z,9.58
2023-04-23T22:27:51.057Z,9.58
2023-04-23T22:30:17.617Z,9.60
2023-04-23T22:32:44.129Z,9.61
2023-04-23T22:35:10.777Z,9.60
2023-04-23T22:37:37.801Z,9.54
2023-04-23T22:40:05.232Z,9.53
2023-04-23T22:42:31.677Z,9.59
2023-04-23T22:44:58.235Z,9.52
2023-04-23T22:47:24.914Z,9.60
2023-04-23T22:49:51.612Z,9.62
2023-04-23T22:52:18.270Z,9.60
2023-04-23T22:54:44.958Z,9.57
2023-04-23T22:57:11.897Z,9.58
2023-04-23T22:59:41.955Z,9.54
2023-04-23T23:02:08.790Z,9.55
2023-04-23T23:04:38.451Z,9.50
2023-04-23T23:07:05.947Z,9.37
2023-04-23T23:09:32.740Z,9.27
2023-04-23T23:12:03.946Z,9.18
2023-04-23T23:14:33.191Z,9.10
2023-04-23T23:16:59.852Z,9.06
2023-04-23T23:19:30.964Z,9.02
2023-04-23T23:21:57.603Z,8.99
2023-04-23T23:24:24.138Z,8.94
2023-04-23T23:26:51.079Z,8.89
2023-04-23T23:29:17.590Z,8.88
2023-04-23T23:31:44.340Z,8.87
2023-04-23T23:34:11.336Z,8.87
2023-04-23T23:36:37.937Z,8.83
2023-04-23T23:39:04.613Z,8.84
2023-04-23T23:41:31.059Z,8.81
2023-04-23T23:43:57.513Z,8.81
2023-04-23T23:46:24.090Z,8.78
2023-04-23T23:48:50.662Z,8.81
2023-04-23T23:51:17.153Z,8.77
2023-04-23T23:53:43.667Z,8.75
2023-04-23T23:56:10.172Z,8.75
2023-04-23T23:58:36.660Z,8.68
